sensor_id;sensor_type;location;lat;lon;timestamp;temperature;humidity
8067;DHT22;4076;48.076;9.118;2023-12-20T00:00:20;3.00;99.90
8067;DHT22;4076;48.076;9.118;2023-12-20T00:02:45;3.00;99.90
8067;DHT22;4076;48.076;9.118;2023-12-20T00:05:13;3.00;99.90
8067;DHT22;4076;48.076;9.118;2023-12-20T00:07:39;3.10;99.90
8067;DHT22;4076;48.076;9.118;2023-12-20T00:10:05;3.10;99.90
8067;DHT22;4076;48.076;9.118;2023-12-20T00:12:31;3.10;99.90
8067;DHT22;4076;48.076;9.118;2023-12-20T00:14:56;3.10;99.90
8067;DHT22;4076;48.076;9.118;2023-12-20T00:17:22;3.10;99.90
8067;DHT22;4076;48.076;9.118;2023-12-20T00:19:47;3.10;99.90
8067;DHT22;4076;48.076;9.118;2023-12-20T00:22:13;3.10;99.90
8067;DHT22;4076;48.076;9.118;2023-12-20T00:24:38;3.10;99.90
8067;DHT22;4076;48.076;9.118;2023-12-20T00:27:04;3.20;99.90
8067;DHT22;4076;48.076;9.118;2023-12-20T00:29:30;3.20;99.90
8067;DHT22;4076;48.076;9.118;2023-12-20T00:31:55;3.20;99.90
8067;DHT22;4076;48.076;9.118;2023-12-20T00:34:21;3.20;99.90
8067;DHT22;4076;48.076;9.118;2023-12-20T00:36:46;3.20;99.90
8067;DHT22;4076;48.076;9.118;2023-12-20T00:39:12;3.10;99.90
8067;DHT22;4076;48.076;9.118;2023-12-20T00:41:38;3.10;99.90
8067;DHT22;4076;48.076;9.118;2023-12-20T00:44:04;3.10;99.90
8067;DHT22;4076;48.076;9.118;2023-12-20T00:46:29;3.10;99.90
8067;DHT22;4076;48.076;9.118;2023-12-20T00:48:55;3.10;99.90
8067;DHT22;4076;48.076;9.118;2023-12-20T00:51:20;3.10;99.90
8067;DHT22;4076;48.076;9.118;2023-12-20T00:53:48;3.20;99.90
8067;DHT22;4076;48.076;9.118;2023-12-20T00:56:14;3.20;99.90
8067;DHT22;4076;48.076;9.118;2023-12-20T00:58:40;3.20;99.90
8067;DHT22;4076;48.076;9.118;2023-12-20T01:01:05;3.20;99.90
8067;DHT22;4076;48.076;9.118;2023-12-20T01:03:31;3.20;99.90
8067;DHT22;4076;48.076;9.118;2023-12-20T01:05:57;3.20;99.90
8067;DHT22;4076;48.076;9.118;2023-12-20T01:08:22;3.20;99.90
8067;DHT22;4076;48.076;9.118;2023-12-20T01:10:48;3.20;99.90
8067;DHT22;4076;48.076;9.118;2023-12-20T01:13:13;3.30;99.90
8067;DHT22;4076;48.076;9.118;2023-12-20T01:15:39;3.30;99.90
8067;DHT22;4076;48.076;9.118;2023-12-20T01:18:05;3.30;99.90
8067;DHT22;4076;48.076;9.118;2023-12-20T01:20:30;3.30;99.90
8067;DHT22;4076;48.076;9.118;2023-12-20T01:22:56;3.30;99.90
8067;DHT22;4076;48.076;9.118;2023-12-20T01:25:22;3.30;99.90
8067;DHT22;4076;48.076;9.118;2023-12-20T01:27:47;3.30;99.90
8067;DHT22;4076;48.076;9.118;2023-12-20T01:30:14;3.20;99.90
8067;DHT22;4076;48.076;9.118;2023-12-20T01:32:40;3.20;99.90
8067;DHT22;4076;48.076;9.118;2023-12-20T01:35:06;3.20;99.90
8067;DHT22;4076;48.076;9.118;2023-12-20T01:37:31;3.20;99.90
8067;DHT22;4076;48.076;9.118;2023-12-20T01:39:57;3.20;99.90
8067;DHT22;4076;48.076;9.118;2023-12-20T01:42:24;3.30;99.90
8067;DHT22;4076;48.076;9.118;2023-12-20T01:44:49;3.30;99.90
8067;DHT22;4076;48.076;9.118;2023-12-20T01:47:15;3.30;99.90
8067;DHT22;4076;48.076;9.118;2023-12-20T01:49:41;3.30;99.90
8067;DHT22;4076;48.076;9.118;2023-12-20T01:52:07;3.30;99.90
8067;DHT22;4076;48.076;9.118;2023-12-20T01:54:33;3.30;99.90
8067;DHT22;4076;48.076;9.118;2023-12-20T01:56:59;3.30;99.90
8067;DHT22;4076;48.076;9.118;2023-12-20T01:59:26;3.30;99.90
8067;DHT22;4076;48.076;9.118;2023-12-20T02:01:51;3.30;99.90
8067;DHT22;4076;48.076;9.118;2023-12-20T02:04:17;3.30;99.90
8067;DHT22;4076;48.076;9.118;2023-12-20T02:06:43;3.30;99.90
8067;DHT22;4076;48.076;9.118;2023-12-20T02:09:11;3.30;99.90
8067;DHT22;4076;48.076;9.118;2023-12-20T02:11:38;3.30;99.90
8067;DHT22;4076;48.076;9.118;2023-12-20T02:14:03;3.30;99.90
8067;DHT22;4076;48.076;9.118;2023-12-20T02:16:29;3.30;99.90
8067;DHT22;4076;48.076;9.118;2023-12-20T02:18:54;3.40;99.90
8067;DHT22;4076;48.076;9.118;2023-12-20T02:21:25;3.40;99.90
8067;DHT22;4076;48.076;9.118;2023-12-20T02:23:51;3.40;99.90
8067;DHT22;4076;48.076;9.118;2023-12-20T02:26:16;3.50;99.90
8067;DHT22;4076;48.076;9.118;2023-12-20T02:28:42;3.50;99.90
8067;DHT22;4076;48.076;9.118;2023-12-20T02:31:07;3.50;99.90
8067;DHT22;4076;48.076;9.118;2023-12-20T02:33:33;3.60;99.90
8067;DHT22;4076;48.076;9.118;2023-12-20T02:35:59;3.80;99.90
8067;DHT22;4076;48.076;9.118;2023-12-20T02:38:24;3.60;99.90
8067;DHT22;4076;48.076;9.118;2023-12-20T02:40:50;3.60;99.90
8067;DHT22;4076;48.076;9.118;2023-12-20T02:43:15;3.60;99.90
8067;DHT22;4076;48.076;9.118;2023-12-20T02:45:41;3.60;99.90
8067;DHT22;4076;48.076;9.118;2023-12-20T02:48:07;3.60;99.90
8067;DHT22;4076;48.076;9.118;2023-12-20T02:50:32;3.60;99.90
8067;DHT22;4076;48.076;9.118;2023-12-20T02:52:58;3.60;99.90
8067;DHT22;4076;48.076;9.118;2023-12-20T02:55:23;3.60;99.90
8067;DHT22;4076;48.076;9.118;2023-12-20T02:57:49;3.60;99.90
8067;DHT22;4076;48.076;9.118;2023-12-20T03:00:14;3.70;99.90
8067;DHT22;4076;48.076;9.118;2023-12-20T03:02:40;3.70;99.90
8067;DHT22;4076;48.076;9.118;2023-12-20T03:05:06;3.70;99.90
8067;DHT22;4076;48.076;9.118;2023-12-20T03:07:31;3.70;99.90
8067;DHT22;4076;48.076;9.118;2023-12-20T03:09:57;3.70;99.90
8067;DHT22;4076;48.076;9.118;2023-12-20T03:12:23;3.60;99.90
8067;DHT22;4076;48.076;9.118;2023-12-20T03:14:49;3.60;99.90
8067;DHT22;4076;48.076;9.118;2023-12-20T03:17:15;3.60;99.90
8067;DHT22;4076;48.076;9.118;2023-12-20T03:19:40;3.50;99.90
8067;DHT22;4076;48.076;9.118;2023-12-20T03:22:06;3.50;99.90
8067;DHT22;4076;48.076;9.118;2023-12-20T03:24:31;3.50;99.90
8067;DHT22;4076;48.076;9.118;2023-12-20T03:26:57;3.40;99.90
8067;DHT22;4076;48.076;9.118;2023-12-20T03:29:22;3.40;99.90
8067;DHT22;4076;48.076;9.118;2023-12-20T03:31:48;3.40;99.90
8067;DHT22;4076;48.076;9.118;2023-12-20T03:34:13;3.40;99.90
8067;DHT22;4076;48.076;9.118;2023-12-20T03:36:39;3.40;99.90
8067;DHT22;4076;48.076;9.118;2023-12-20T03:39:05;3.30;99.90
8067;DHT22;4076;48.076;9.118;2023-12-20T03:41:31;3.30;99.90
8067;DHT22;4076;48.076;9.118;2023-12-20T03:43:56;3.30;99.90
8067;DHT22;4076;48.076;9.118;2023-12-20T03:46:22;3.30;99.90
8067;DHT22;4076;48.076;9.118;2023-12-20T03:48:47;3.30;99.90
8067;DHT22;4076;48.076;9.118;2023-12-20T03:51:13;3.30;99.90
8067;DHT22;4076;48.076;9.118;2023-12-20T03:53:38;3.30;99.90
8067;DHT22;4076;48.076;9.118;2023-12-20T03:56:06;3.30;99.90
8067;DHT22;4076;48.076;9.118;2023-12-20T03:58:31;3.30;99.90
8067;DHT22;4076;48.076;9.118;2023-12-20T04:00:57;3.20;99.90
8067;DHT22;4076;48.076;9.118;2023-12-20T04:03:22;3.20;99.90
8067;DHT22;4076;48.076;9.118;2023-12-20T04:05:48;3.20;99.90
8067;DHT22;4076;48.076;9.118;2023-12-20T04:08:13;3.30;99.90
8067;DHT22;4076;48.076;9.118;2023-12-20T04:10:39;3.30;99.90
8067;DHT22;4076;48.076;9.118;2023-12-20T04:13:05;3.20;99.90
8067;DHT22;4076;48.076;9.118;2023-12-20T04:15:30;3.20;99.90
8067;DHT22;4076;48.076;9.118;2023-12-20T04:17:56;3.20;99.90
8067;DHT22;4076;48.076;9.118;2023-12-20T04:20:21;3.20;99.90
8067;DHT22;4076;48.076;9.118;2023-12-20T04:22:47;3.20;99.90
8067;DHT22;4076;48.076;9.118;2023-12-20T04:25:12;3.20;99.90
8067;DHT22;4076;48.076;9.118;2023-12-20T04:27:38;3.20;99.90
8067;DHT22;4076;48.076;9.118;2023-12-20T04:30:04;3.20;99.90
8067;DHT22;4076;48.076;9.118;2023-12-20T04:32:29;3.20;99.90
8067;DHT22;4076;48.076;9.118;2023-12-20T04:34:55;3.20;99.90
8067;DHT22;4076;48.076;9.118;2023-12-20T04:37:21;3.20;99.90
8067;DHT22;4076;48.076;9.118;2023-12-20T04:39:46;3.20;99.90
8067;DHT22;4076;48.076;9.118;2023-12-20T04:42:12;3.20;99.90
8067;DHT22;4076;48.076;9.118;2023-12-20T04:44:37;3.30;99.90
8067;DHT22;4076;48.076;9.118;2023-12-20T04:47:03;3.30;99.90
8067;DHT22;4076;48.076;9.118;2023-12-20T04:49:29;3.30;99.90
8067;DHT22;4076;48.076;9.118;2023-12-20T04:51:54;3.30;99.90
8067;DHT22;4076;48.076;9.118;2023-12-20T04:54:21;3.40;99.90
8067;DHT22;4076;48.076;9.118;2023-12-20T04:56:46;3.40;99.90
8067;DHT22;4076;48.076;9.118;2023-12-20T04:59:12;3.40;99.90
8067;DHT22;4076;48.076;9.118;2023-12-20T05:01:38;3.50;99.90
8067;DHT22;4076;48.076;9.118;2023-12-20T05:04:04;3.60;99.90
8067;DHT22;4076;48.076;9.118;2023-12-20T05:06:30;3.70;99.90
8067;DHT22;4076;48.076;9.118;2023-12-20T05:08:55;3.80;99.90
8067;DHT22;4076;48.076;9.118;2023-12-20T05:11:21;3.90;99.90
8067;DHT22;4076;48.076;9.118;2023-12-20T05:13:47;3.90;99.90
8067;DHT22;4076;48.076;9.118;2023-12-20T05:16:13;4.00;99.90
8067;DHT22;4076;48.076;9.118;2023-12-20T05:18:39;4.00;99.90
8067;DHT22;4076;48.076;9.118;2023-12-20T05:21:05;4.00;99.90
8067;DHT22;4076;48.076;9.118;2023-12-20T05:23:31;4.00;99.90
8067;DHT22;4076;48.076;9.118;2023-12-20T05:25:56;4.00;99.90
8067;DHT22;4076;48.076;9.118;2023-12-20T05:28:22;4.00;99.90
8067;DHT22;4076;48.076;9.118;2023-12-20T05:30:47;3.90;99.90
8067;DHT22;4076;48.076;9.118;2023-12-20T05:33:13;3.90;99.90
8067;DHT22;4076;48.076;9.118;2023-12-20T05:35:38;3.90;99.90
8067;DHT22;4076;48.076;9.118;2023-12-20T05:38:04;3.90;99.90
8067;DHT22;4076;48.076;9.118;2023-12-20T05:40:29;3.90;99.90
8067;DHT22;4076;48.076;9.118;2023-12-20T05:42:55;3.90;99.90
8067;DHT22;4076;48.076;9.118;2023-12-20T05:45:20;3.90;99.90
8067;DHT22;4076;48.076;9.118;2023-12-20T05:47:46;3.90;99.90
8067;DHT22;4076;48.076;9.118;2023-12-20T05:50:12;3.80;99.90
8067;DHT22;4076;48.076;9.118;2023-12-20T05:52:37;3.80;99.90
8067;DHT22;4076;48.076;9.118;2023-12-20T05:55:03;3.80;99.90
8067;DHT22;4076;48.076;9.118;2023-12-20T05:57:29;3.80;99.90
8067;DHT22;4076;48.076;9.118;2023-12-20T05:59:54;3.80;99.90
8067;DHT22;4076;48.076;9.118;2023-12-20T06:02:20;3.80;99.90
8067;DHT22;4076;48.076;9.118;2023-12-20T06:04:45;3.80;99.90
8067;DHT22;4076;48.076;9.118;2023-12-20T06:07:12;3.80;99.90
8067;DHT22;4076;48.076;9.118;2023-12-20T06:09:38;3.80;99.90
8067;DHT22;4076;48.076;9.118;2023-12-20T06:12:04;3.80;99.90
8067;DHT22;4076;48.076;9.118;2023-12-20T06:14:30;3.80;99.90
8067;DHT22;4076;48.076;9.118;2023-12-20T06:16:56;3.80;99.90
8067;DHT22;4076;48.076;9.118;2023-12-20T06:19:22;3.80;99.90
8067;DHT22;4076;48.076;9.118;2023-12-20T06:21:48;3.80;99.90
8067;DHT22;4076;48.076;9.118;2023-12-20T06:24:13;3.80;99.90
8067;DHT22;4076;48.076;9.118;2023-12-20T06:26:39;3.80;99.90
8067;DHT22;4076;48.076;9.118;2023-12-20T06:29:05;3.80;99.90
8067;DHT22;4076;48.076;9.118;2023-12-20T06:31:31;3.80;99.90
8067;DHT22;4076;48.076;9.118;2023-12-20T06:33:58;3.80;99.90
8067;DHT22;4076;48.076;9.118;2023-12-20T06:36:25;3.80;99.90
8067;DHT22;4076;48.076;9.118;2023-12-20T06:38:51;3.80;99.90
8067;DHT22;4076;48.076;9.118;2023-12-20T06:41:17;3.80;99.90
8067;DHT22;4076;48.076;9.118;2023-12-20T06:43:43;3.80;99.90
8067;DHT22;4076;48.076;9.118;2023-12-20T06:46:08;3.80;99.90
8067;DHT22;4076;48.076;9.118;2023-12-20T06:48:34;3.80;99.90
8067;DHT22;4076;48.076;9.118;2023-12-20T06:51:01;3.80;99.90
8067;DHT22;4076;48.076;9.118;2023-12-20T06:53:27;3.80;99.90
8067;DHT22;4076;48.076;9.118;2023-12-20T06:55:54;3.90;99.90
8067;DHT22;4076;48.076;9.118;2023-12-20T06:58:21;3.80;99.90
8067;DHT22;4076;48.076;9.118;2023-12-20T07:00:47;3.90;99.90
8067;DHT22;4076;48.076;9.118;2023-12-20T07:03:12;3.90;99.90
8067;DHT22;4076;48.076;9.118;2023-12-20T07:05:38;3.90;99.90
8067;DHT22;4076;48.076;9.118;2023-12-20T07:08:04;3.90;99.90
8067;DHT22;4076;48.076;9.118;2023-12-20T07:10:30;3.90;99.90
8067;DHT22;4076;48.076;9.118;2023-12-20T07:12:55;3.90;99.90
8067;DHT22;4076;48.076;9.118;2023-12-20T07:15:22;4.00;99.90
8067;DHT22;4076;48.076;9.118;2023-12-20T07:17:47;4.00;99.90
8067;DHT22;4076;48.076;9.118;2023-12-20T07:20:13;4.10;99.90
8067;DHT22;4076;48.076;9.118;2023-12-20T07:22:38;4.10;99.90
8067;DHT22;4076;48.076;9.118;2023-12-20T07:25:04;4.10;99.90
8067;DHT22;4076;48.076;9.118;2023-12-20T07:27:30;4.10;99.90
8067;DHT22;4076;48.076;9.118;2023-12-20T07:29:56;4.10;99.90
8067;DHT22;4076;48.076;9.118;2023-12-20T07:32:21;4.10;99.90
8067;DHT22;4076;48.076;9.118;2023-12-20T07:34:47;4.10;99.90
8067;DHT22;4076;48.076;9.118;2023-12-20T07:37:13;4.10;99.90
8067;DHT22;4076;48.076;9.118;2023-12-20T07:39:41;4.10;99.90
8067;DHT22;4076;48.076;9.118;2023-12-20T07:42:07;4.10;99.90
8067;DHT22;4076;48.076;9.118;2023-12-20T07:44:34;4.10;99.90
8067;DHT22;4076;48.076;9.118;2023-12-20T07:47:01;4.10;99.90
8067;DHT22;4076;48.076;9.118;2023-12-20T07:49:26;4.10;99.90
8067;DHT22;4076;48.076;9.118;2023-12-20T07:51:52;4.00;99.90
8067;DHT22;4076;48.076;9.118;2023-12-20T07:54:18;4.00;99.90
8067;DHT22;4076;48.076;9.118;2023-12-20T07:56:45;4.10;99.90
8067;DHT22;4076;48.076;9.118;2023-12-20T07:59:10;4.10;99.90
8067;DHT22;4076;48.076;9.118;2023-12-20T08:01:36;4.10;99.90
8067;DHT22;4076;48.076;9.118;2023-12-20T08:04:01;4.20;99.90
8067;DHT22;4076;48.076;9.118;2023-12-20T08:06:28;4.30;99.90
8067;DHT22;4076;48.076;9.118;2023-12-20T08:08:56;4.30;99.90
8067;DHT22;4076;48.076;9.118;2023-12-20T08:11:22;4.40;99.90
8067;DHT22;4076;48.076;9.118;2023-12-20T08:13:48;4.50;99.90
8067;DHT22;4076;48.076;9.118;2023-12-20T08:16:16;4.50;99.90
8067;DHT22;4076;48.076;9.118;2023-12-20T08:18:43;4.70;99.90
8067;DHT22;4076;48.076;9.118;2023-12-20T08:21:08;5.00;99.90
8067;DHT22;4076;48.076;9.118;2023-12-20T08:23:34;5.30;99.90
8067;DHT22;4076;48.076;9.118;2023-12-20T08:26:09;5.70;99.90
8067;DHT22;4076;48.076;9.118;2023-12-20T08:28:34;6.00;99.90
8067;DHT22;4076;48.076;9.118;2023-12-20T08:31:00;6.40;99.90
8067;DHT22;4076;48.076;9.118;2023-12-20T08:33:26;6.80;99.90
8067;DHT22;4076;48.076;9.118;2023-12-20T08:35:51;7.10;99.90
8067;DHT22;4076;48.076;9.118;2023-12-20T08:38:17;7.30;99.90
8067;DHT22;4076;48.076;9.118;2023-12-20T08:40:43;7.50;99.90
8067;DHT22;4076;48.076;9.118;2023-12-20T08:43:09;7.80;99.90
8067;DHT22;4076;48.076;9.118;2023-12-20T08:45:35;8.00;99.90
8067;DHT22;4076;48.076;9.118;2023-12-20T08:48:00;8.60;99.90
8067;DHT22;4076;48.076;9.118;2023-12-20T08:50:26;9.20;99.90
8067;DHT22;4076;48.076;9.118;2023-12-20T08:52:52;9.40;99.90
8067;DHT22;4076;48.076;9.118;2023-12-20T08:55:18;9.80;99.90
8067;DHT22;4076;48.076;9.118;2023-12-20T08:57:44;10.40;99.90
8067;DHT22;4076;48.076;9.118;2023-12-20T09:00:10;11.40;99.90
8067;DHT22;4076;48.076;9.118;2023-12-20T09:02:36;12.60;99.90
8067;DHT22;4076;48.076;9.118;2023-12-20T09:05:03;13.60;99.90
8067;DHT22;4076;48.076;9.118;2023-12-20T09:07:28;14.30;99.90
8067;DHT22;4076;48.076;9.118;2023-12-20T09:09:57;14.70;99.50
8067;DHT22;4076;48.076;9.118;2023-12-20T09:12:23;14.70;99.90
8067;DHT22;4076;48.076;9.118;2023-12-20T09:14:49;14.50;99.90
8067;DHT22;4076;48.076;9.118;2023-12-20T09:17:16;14.00;92.60
8067;DHT22;4076;48.076;9.118;2023-12-20T09:19:42;13.50;92.80
8067;DHT22;4076;48.076;9.118;2023-12-20T09:22:09;13.60;95.90
8067;DHT22;4076;48.076;9.118;2023-12-20T09:24:35;13.60;90.80
8067;DHT22;4076;48.076;9.118;2023-12-20T09:27:01;13.10;88.00
8067;DHT22;4076;48.076;9.118;2023-12-20T09:29:26;12.30;87.10
8067;DHT22;4076;48.076;9.118;2023-12-20T09:31:52;11.50;86.80
8067;DHT22;4076;48.076;9.118;2023-12-20T09:34:18;11.00;88.70
8067;DHT22;4076;48.076;9.118;2023-12-20T09:36:43;10.50;88.80
8067;DHT22;4076;48.076;9.118;2023-12-20T09:39:16;10.00;88.70
8067;DHT22;4076;48.076;9.118;2023-12-20T09:41:48;9.60;90.10
8067;DHT22;4076;48.076;9.118;2023-12-20T09:44:16;9.40;91.10
8067;DHT22;4076;48.076;9.118;2023-12-20T09:46:44;9.90;94.00
8067;DHT22;4076;48.076;9.118;2023-12-20T09:49:10;11.30;95.50
8067;DHT22;4076;48.076;9.118;2023-12-20T09:51:36;12.20;92.90
8067;DHT22;4076;48.076;9.118;2023-12-20T09:54:03;12.40;89.60
8067;DHT22;4076;48.076;9.118;2023-12-20T09:56:30;12.60;86.60
8067;DHT22;4076;48.076;9.118;2023-12-20T09:58:55;12.80;88.20
8067;DHT22;4076;48.076;9.118;2023-12-20T10:01:21;13.70;88.20
8067;DHT22;4076;48.076;9.118;2023-12-20T10:03:47;14.60;76.80
8067;DHT22;4076;48.076;9.118;2023-12-20T10:06:13;15.10;76.60
8067;DHT22;4076;48.076;9.118;2023-12-20T10:08:38;15.40;75.60
8067;DHT22;4076;48.076;9.118;2023-12-20T10:11:05;15.20;72.80
8067;DHT22;4076;48.076;9.118;2023-12-20T10:13:30;15.00;71.90
8067;DHT22;4076;48.076;9.118;2023-12-20T10:15:56;14.50;67.60
8067;DHT22;4076;48.076;9.118;2023-12-20T10:18:23;13.70;67.00
8067;DHT22;4076;48.076;9.118;2023-12-20T10:20:49;12.90;67.30
8067;DHT22;4076;48.076;9.118;2023-12-20T10:23:15;12.10;67.60
8067;DHT22;4076;48.076;9.118;2023-12-20T10:25:41;11.40;70.10
8067;DHT22;4076;48.076;9.118;2023-12-20T10:28:16;10.80;70.70
8067;DHT22;4076;48.076;9.118;2023-12-20T10:30:48;10.30;72.80
8067;DHT22;4076;48.076;9.118;2023-12-20T10:33:26;10.00;72.40
8067;DHT22;4076;48.076;9.118;2023-12-20T10:35:52;10.00;75.80
8067;DHT22;4076;48.076;9.118;2023-12-20T10:38:19;9.80;77.70
8067;DHT22;4076;48.076;9.118;2023-12-20T10:40:46;9.50;78.00
8067;DHT22;4076;48.076;9.118;2023-12-20T10:43:12;9.00;79.40
8067;DHT22;4076;48.076;9.118;2023-12-20T10:45:38;8.70;80.50
8067;DHT22;4076;48.076;9.118;2023-12-20T10:48:04;8.40;80.30
8067;DHT22;4076;48.076;9.118;2023-12-20T10:50:31;8.20;81.50
8067;DHT22;4076;48.076;9.118;2023-12-20T10:52:57;8.10;82.70
8067;DHT22;4076;48.076;9.118;2023-12-20T10:55:23;8.20;83.00
8067;DHT22;4076;48.076;9.118;2023-12-20T10:57:51;8.20;87.10
8067;DHT22;4076;48.076;9.118;2023-12-20T11:00:18;8.20;88.00
8067;DHT22;4076;48.076;9.118;2023-12-20T11:02:44;8.10;88.50
8067;DHT22;4076;48.076;9.118;2023-12-20T11:05:36;8.20;88.60
8067;DHT22;4076;48.076;9.118;2023-12-20T11:08:11;8.30;88.80
8067;DHT22;4076;48.076;9.118;2023-12-20T11:13:47;9.20;92.10
8067;DHT22;4076;48.076;9.118;2023-12-20T11:16:14;10.80;92.40
8067;DHT22;4076;48.076;9.118;2023-12-20T11:18:41;12.50;87.20
8067;DHT22;4076;48.076;9.118;2023-12-20T11:21:06;13.90;78.40
8067;DHT22;4076;48.076;9.118;2023-12-20T11:23:32;14.20;69.20
8067;DHT22;4076;48.076;9.118;2023-12-20T11:26:02;14.30;65.90
8067;DHT22;4076;48.076;9.118;2023-12-20T11:28:28;15.30;65.50
8067;DHT22;4076;48.076;9.118;2023-12-20T11:30:56;17.20;62.00
8067;DHT22;4076;48.076;9.118;2023-12-20T11:33:37;18.20;55.50
8067;DHT22;4076;48.076;9.118;2023-12-20T11:36:03;17.80;52.50
8067;DHT22;4076;48.076;9.118;2023-12-20T11:38:38;16.40;51.90
8067;DHT22;4076;48.076;9.118;2023-12-20T11:41:06;14.70;52.10
8067;DHT22;4076;48.076;9.118;2023-12-20T11:43:38;13.30;52.70
8067;DHT22;4076;48.076;9.118;2023-12-20T11:46:05;12.10;54.50
8067;DHT22;4076;48.076;9.118;2023-12-20T11:48:32;11.10;55.60
8067;DHT22;4076;48.076;9.118;2023-12-20T11:50:58;10.40;56.50
8067;DHT22;4076;48.076;9.118;2023-12-20T11:53:23;9.80;58.80
8067;DHT22;4076;48.076;9.118;2023-12-20T11:55:49;9.20;58.40
8067;DHT22;4076;48.076;9.118;2023-12-20T11:58:15;8.80;59.50
8067;DHT22;4076;48.076;9.118;2023-12-20T12:00:42;8.30;59.50
8067;DHT22;4076;48.076;9.118;2023-12-20T12:03:08;8.10;60.40
8067;DHT22;4076;48.076;9.118;2023-12-20T12:05:34;8.00;61.70
8067;DHT22;4076;48.076;9.118;2023-12-20T12:08:00;8.00;62.10
8067;DHT22;4076;48.076;9.118;2023-12-20T12:10:25;8.00;61.30
8067;DHT22;4076;48.076;9.118;2023-12-20T12:12:51;8.00;62.30
8067;DHT22;4076;48.076;9.118;2023-12-20T12:15:16;8.00;61.60
8067;DHT22;4076;48.076;9.118;2023-12-20T12:17:42;8.10;60.80
8067;DHT22;4076;48.076;9.118;2023-12-20T12:20:08;7.90;61.10
8067;DHT22;4076;48.076;9.118;2023-12-20T12:22:35;7.70;60.70
8067;DHT22;4076;48.076;9.118;2023-12-20T12:25:12;7.60;61.80
8067;DHT22;4076;48.076;9.118;2023-12-20T12:27:41;7.80;61.70
8067;DHT22;4076;48.076;9.118;2023-12-20T12:30:09;8.10;63.30
8067;DHT22;4076;48.076;9.118;2023-12-20T12:32:35;8.40;63.10
8067;DHT22;4076;48.076;9.118;2023-12-20T12:35:03;8.50;61.90
8067;DHT22;4076;48.076;9.118;2023-12-20T12:37:29;8.50;60.40
8067;DHT22;4076;48.076;9.118;2023-12-20T12:39:55;8.30;60.70
8067;DHT22;4076;48.076;9.118;2023-12-20T12:42:21;8.10;61.00
8067;DHT22;4076;48.076;9.118;2023-12-20T12:44:47;8.00;61.20
8067;DHT22;4076;48.076;9.118;2023-12-20T12:47:13;7.90;61.50
8067;DHT22;4076;48.076;9.118;2023-12-20T12:49:40;7.80;61.10
8067;DHT22;4076;48.076;9.118;2023-12-20T12:52:06;7.80;61.50
8067;DHT22;4076;48.076;9.118;2023-12-20T12:54:31;7.80;63.30
8067;DHT22;4076;48.076;9.118;2023-12-20T12:56:57;7.90;61.30
8067;DHT22;4076;48.076;9.118;2023-12-20T12:59:23;7.90;62.10
8067;DHT22;4076;48.076;9.118;2023-12-20T13:01:49;8.00;62.60
8067;DHT22;4076;48.076;9.118;2023-12-20T13:04:14;8.10;63.80
8067;DHT22;4076;48.076;9.118;2023-12-20T13:06:40;8.10;63.90
8067;DHT22;4076;48.076;9.118;2023-12-20T13:09:07;8.20;64.00
8067;DHT22;4076;48.076;9.118;2023-12-20T13:11:35;8.30;64.20
8067;DHT22;4076;48.076;9.118;2023-12-20T13:14:00;8.30;63.00
8067;DHT22;4076;48.076;9.118;2023-12-20T13:16:26;8.10;62.90
8067;DHT22;4076;48.076;9.118;2023-12-20T13:18:52;7.90;61.70
8067;DHT22;4076;48.076;9.118;2023-12-20T13:21:17;7.70;62.40
8067;DHT22;4076;48.076;9.118;2023-12-20T13:23:43;7.50;61.50
8067;DHT22;4076;48.076;9.118;2023-12-20T13:26:09;7.20;62.00
8067;DHT22;4076;48.076;9.118;2023-12-20T13:28:34;7.00;61.50
8067;DHT22;4076;48.076;9.118;2023-12-20T13:31:00;6.90;62.40
8067;DHT22;4076;48.076;9.118;2023-12-20T13:33:25;6.70;63.70
8067;DHT22;4076;48.076;9.118;2023-12-20T13:35:51;6.60;62.10
8067;DHT22;4076;48.076;9.118;2023-12-20T13:38:17;6.50;61.80
8067;DHT22;4076;48.076;9.118;2023-12-20T13:40:42;6.50;62.00
8067;DHT22;4076;48.076;9.118;2023-12-20T13:43:08;6.40;61.40
8067;DHT22;4076;48.076;9.118;2023-12-20T13:45:34;6.30;62.40
8067;DHT22;4076;48.076;9.118;2023-12-20T13:48:00;6.30;63.30
8067;DHT22;4076;48.076;9.118;2023-12-20T13:50:25;6.20;62.80
8067;DHT22;4076;48.076;9.118;2023-12-20T13:52:51;6.20;63.40
8067;DHT22;4076;48.076;9.118;2023-12-20T13:55:17;6.10;63.50
8067;DHT22;4076;48.076;9.118;2023-12-20T13:57:42;6.10;63.20
8067;DHT22;4076;48.076;9.118;2023-12-20T14:00:09;6.10;64.00
8067;DHT22;4076;48.076;9.118;2023-12-20T14:02:40;6.10;65.10
8067;DHT22;4076;48.076;9.118;2023-12-20T14:05:07;6.20;65.10
8067;DHT22;4076;48.076;9.118;2023-12-20T14:07:33;6.20;65.10
8067;DHT22;4076;48.076;9.118;2023-12-20T14:09:59;6.20;65.00
8067;DHT22;4076;48.076;9.118;2023-12-20T14:12:25;6.30;65.40
8067;DHT22;4076;48.076;9.118;2023-12-20T14:14:51;6.30;65.60
8067;DHT22;4076;48.076;9.118;2023-12-20T14:17:17;6.30;65.40
8067;DHT22;4076;48.076;9.118;2023-12-20T14:19:43;6.20;65.10
8067;DHT22;4076;48.076;9.118;2023-12-20T14:22:09;6.20;66.30
8067;DHT22;4076;48.076;9.118;2023-12-20T14:24:35;6.10;66.50
8067;DHT22;4076;48.076;9.118;2023-12-20T14:27:01;6.00;66.10
8067;DHT22;4076;48.076;9.118;2023-12-20T14:29:27;6.00;66.30
8067;DHT22;4076;48.076;9.118;2023-12-20T14:31:52;5.90;66.60
8067;DHT22;4076;48.076;9.118;2023-12-20T14:34:18;5.90;66.60
8067;DHT22;4076;48.076;9.118;2023-12-20T14:36:44;5.70;66.90
8067;DHT22;4076;48.076;9.118;2023-12-20T14:39:09;5.60;67.90
8067;DHT22;4076;48.076;9.118;2023-12-20T14:41:38;5.50;68.30
8067;DHT22;4076;48.076;9.118;2023-12-20T14:44:05;5.40;68.10
8067;DHT22;4076;48.076;9.118;2023-12-20T14:46:31;5.30;68.50
8067;DHT22;4076;48.076;9.118;2023-12-20T14:48:56;5.20;69.30
8067;DHT22;4076;48.076;9.118;2023-12-20T14:51:22;5.10;69.50
8067;DHT22;4076;48.076;9.118;2023-12-20T14:53:48;5.10;69.70
8067;DHT22;4076;48.076;9.118;2023-12-20T14:56:13;5.00;70.10
8067;DHT22;4076;48.076;9.118;2023-12-20T14:58:40;4.90;70.00
8067;DHT22;4076;48.076;9.118;2023-12-20T15:01:05;4.80;70.50
8067;DHT22;4076;48.076;9.118;2023-12-20T15:03:34;4.70;70.80
8067;DHT22;4076;48.076;9.118;2023-12-20T15:06:00;4.70;70.50
8067;DHT22;4076;48.076;9.118;2023-12-20T15:08:26;4.70;71.40
8067;DHT22;4076;48.076;9.118;2023-12-20T15:10:51;4.70;71.90
8067;DHT22;4076;48.076;9.118;2023-12-20T15:13:17;4.70;72.20
8067;DHT22;4076;48.076;9.118;2023-12-20T15:15:42;4.60;72.80
8067;DHT22;4076;48.076;9.118;2023-12-20T15:18:08;4.60;72.90
8067;DHT22;4076;48.076;9.118;2023-12-20T15:20:33;4.60;73.50
8067;DHT22;4076;48.076;9.118;2023-12-20T15:23:01;4.50;73.70
8067;DHT22;4076;48.076;9.118;2023-12-20T15:25:32;4.50;73.80
8067;DHT22;4076;48.076;9.118;2023-12-20T15:27:58;4.50;73.40
8067;DHT22;4076;48.076;9.118;2023-12-20T15:30:23;4.40;74.10
8067;DHT22;4076;48.076;9.118;2023-12-20T15:32:50;4.40;73.80
8067;DHT22;4076;48.076;9.118;2023-12-20T15:35:16;4.40;74.60
8067;DHT22;4076;48.076;9.118;2023-12-20T15:37:42;4.30;74.30
8067;DHT22;4076;48.076;9.118;2023-12-20T15:40:08;4.30;74.70
8067;DHT22;4076;48.076;9.118;2023-12-20T15:42:36;4.30;74.90
8067;DHT22;4076;48.076;9.118;2023-12-20T15:45:05;4.30;75.60
8067;DHT22;4076;48.076;9.118;2023-12-20T15:47:31;4.30;75.80
8067;DHT22;4076;48.076;9.118;2023-12-20T15:49:57;4.20;75.90
8067;DHT22;4076;48.076;9.118;2023-12-20T15:52:23;4.20;76.60
8067;DHT22;4076;48.076;9.118;2023-12-20T15:54:48;4.10;76.70
8067;DHT22;4076;48.076;9.118;2023-12-20T15:57:14;4.10;76.70
8067;DHT22;4076;48.076;9.118;2023-12-20T15:59:43;4.00;77.30
8067;DHT22;4076;48.076;9.118;2023-12-20T16:02:09;4.00;77.60
8067;DHT22;4076;48.076;9.118;2023-12-20T16:04:34;3.90;78.10
8067;DHT22;4076;48.076;9.118;2023-12-20T16:07:00;3.80;78.30
8067;DHT22;4076;48.076;9.118;2023-12-20T16:09:25;3.80;78.70